Time;durP1;ratioP1;P1;durP2;ratioP2;P2;SDS_P1;SDS_P2;PMS_P1;PMS_P2;Temp;Humidity;BMP_temperature;BMP_pressure;BME280_temperature;BME280_humidity;BME280_pressure;Samples;Min_cycle;Max_cycle;Signal;HPM_P1;HPM_P2
2021/09/21 00:00:08;;;;;;;15.70;11.27;;;;;;;;;;5137863;27;20224;-82
2021/09/21 00:02:38;;;;;;;21.85;11.48;;;;;;;;;;5120462;28;20051;-82
2021/09/21 00:05:06;;;;;;;18.75;11.60;;;;;;;;;;5138849;28;20051;-82
2021/09/21 00:07:32;;;;;;;17.33;11.75;;;;;;;;;;5139157;28;20051;-82
2021/09/21 00:09:59;;;;;;;20.58;12.07;;;;;;;;;;5139918;28;20110;-82
2021/09/21 00:12:25;;;;;;;18.90;12.50;;;;;;;;;;5125155;28;20043;-83
2021/09/21 00:14:52;;;;;;;19.38;11.52;;;;;;;;;;5147643;28;20039;-83
2021/09/21 00:17:19;;;;;;;18.33;12.00;;;;;;;;;;5125816;28;20059;-83
2021/09/21 00:19:46;;;;;;;18.15;11.32;;;;;;;;;;5146395;28;20055;-82
2021/09/21 00:22:15;;;;;;;17.83;10.77;;;;;;;;;;5145128;28;20534;-83
2021/09/21 00:24:42;;;;;;;17.10;11.30;;;;;;;;;;5122747;28;20203;-83
2021/09/21 00:27:09;;;;;;;16.27;11.10;;;;;;;;;;5099982;28;20217;-83
2021/09/21 00:29:36;;;;;;;18.23;11.73;;;;;;;;;;5101919;28;20062;-82
2021/09/21 00:32:13;;;;;;;18.00;12.02;;;;;;;;;;5121066;28;20078;-83
2021/09/21 00:34:42;;;;;;;16.20;11.10;;;;;;;;;;5137930;28;20059;-82
2021/09/21 00:37:10;;;;;;;19.73;10.75;;;;;;;;;;5119800;28;20062;-81
2021/09/21 00:39:37;;;;;;;22.63;11.00;;;;;;;;;;5118784;28;20070;-82
2021/09/21 00:42:06;;;;;;;17.25;11.77;;;;;;;;;;5135324;28;20111;-82
2021/09/21 00:44:34;;;;;;;22.60;13.23;;;;;;;;;;5118909;28;20058;-81
2021/09/21 00:47:02;;;;;;;19.95;10.90;;;;;;;;;;5119105;28;20312;-81
2021/09/21 00:49:28;;;;;;;22.45;11.75;;;;;;;;;;5118506;28;20146;-82
2021/09/21 00:51:55;;;;;;;21.27;12.13;;;;;;;;;;5136357;28;20047;-83
2021/09/21 00:54:22;;;;;;;18.98;11.77;;;;;;;;;;5136230;28;20120;-81
2021/09/21 00:56:49;;;;;;;16.33;10.93;;;;;;;;;;5118623;28;20055;-82
2021/09/21 00:59:16;;;;;;;16.60;10.60;;;;;;;;;;5117989;28;20051;-81
2021/09/21 01:01:43;;;;;;;17.55;11.15;;;;;;;;;;5136404;28;20104;-81
2021/09/21 01:04:09;;;;;;;16.15;10.95;;;;;;;;;;5136034;28;20047;-81
2021/09/21 01:06:36;;;;;;;17.70;10.52;;;;;;;;;;5136857;28;20108;-81
2021/09/21 01:09:03;;;;;;;15.23;9.88;;;;;;;;;;5122227;27;20365;-81
2021/09/21 01:11:30;;;;;;;17.90;10.98;;;;;;;;;;5141319;27;20150;-81
2021/09/21 01:13:57;;;;;;;16.40;9.90;;;;;;;;;;5122134;27;20431;-81
2021/09/21 01:16:23;;;;;;;16.05;11.02;;;;;;;;;;5104435;28;20102;-81
2021/09/21 01:18:50;;;;;;;20.35;11.38;;;;;;;;;;5101318;28;20052;-81
2021/09/21 01:21:17;;;;;;;17.10;10.23;;;;;;;;;;5098840;28;20060;-82
2021/09/21 01:23:46;;;;;;;14.93;10.10;;;;;;;;;;5099282;28;20087;-81
2021/09/21 01:26:13;;;;;;;19.75;10.60;;;;;;;;;;5099839;28;20151;-81
2021/09/21 01:28:40;;;;;;;13.95;10.70;;;;;;;;;;5098973;28;20062;-81
2021/09/21 01:31:10;;;;;;;17.13;10.57;;;;;;;;;;5099072;28;20436;-81
2021/09/21 01:33:39;;;;;;;19.60;11.80;;;;;;;;;;5097880;28;20312;-81
2021/09/21 01:36:06;;;;;;;17.05;10.93;;;;;;;;;;5108524;28;20056;-81
2021/09/21 01:38:33;;;;;;;16.27;11.02;;;;;;;;;;5108608;28;20536;-82
2021/09/21 01:41:00;;;;;;;17.70;11.30;;;;;;;;;;5102449;28;20056;-82
2021/09/21 01:43:32;;;;;;;16.10;11.02;;;;;;;;;;5099340;28;20070;-82
2021/09/21 01:46:01;;;;;;;17.02;11.77;;;;;;;;;;5101670;28;20052;-81
2021/09/21 01:48:28;;;;;;;16.45;10.73;;;;;;;;;;5108553;28;20052;-82
2021/09/21 01:51:09;;;;;;;14.98;10.73;;;;;;;;;;5100780;28;20113;-82
2021/09/21 01:58:54;;;;;;;21.35;12.68;;;;;;;;;;5099496;28;20106;-82
2021/09/21 02:01:22;;;;;;;19.23;11.40;;;;;;;;;;5099564;28;20052;-82
2021/09/21 02:03:53;;;;;;;18.23;12.18;;;;;;;;;;5100056;28;20044;-81
2021/09/21 02:06:23;;;;;;;17.90;12.50;;;;;;;;;;5098029;28;20052;-82
2021/09/21 02:08:50;;;;;;;19.33;12.40;;;;;;;;;;5099129;28;20403;-82
2021/09/21 02:11:18;;;;;;;19.40;12.20;;;;;;;;;;5099000;28;20332;-83
2021/09/21 02:13:45;;;;;;;18.38;11.65;;;;;;;;;;5098681;28;20119;-82
2021/09/21 02:16:12;;;;;;;19.10;12.10;;;;;;;;;;5124798;27;20225;-83
2021/09/21 02:18:39;;;;;;;17.40;12.13;;;;;;;;;;5121558;27;20492;-83
2021/09/21 02:21:06;;;;;;;27.30;13.57;;;;;;;;;;5121376;27;20047;-83
2021/09/21 02:23:33;;;;;;;18.63;12.23;;;;;;;;;;5138644;27;20322;-83
2021/09/21 02:25:59;;;;;;;20.95;12.23;;;;;;;;;;5140850;27;20119;-83
2021/09/21 02:28:26;;;;;;;16.05;11.80;;;;;;;;;;5140462;27;20051;-82
2021/09/21 02:30:53;;;;;;;18.13;12.00;;;;;;;;;;5138333;27;20059;-82
2021/09/21 02:33:20;;;;;;;18.75;11.43;;;;;;;;;;5120102;27;20417;-82
2021/09/21 02:35:46;;;;;;;16.77;10.90;;;;;;;;;;5120434;27;20062;-81
2021/09/21 02:38:17;;;;;;;18.42;11.07;;;;;;;;;;5138766;27;20066;-81
2021/09/21 02:40:44;;;;;;;15.93;11.23;;;;;;;;;;5132152;27;20039;-81
2021/09/21 02:43:10;;;;;;;20.60;12.00;;;;;;;;;;5138818;27;20099;-83
2021/09/21 02:45:37;;;;;;;21.35;10.80;;;;;;;;;;5152271;27;20053;-82
2021/09/21 02:48:04;;;;;;;15.65;11.45;;;;;;;;;;5124669;27;20233;-82
2021/09/21 02:50:31;;;;;;;14.20;10.60;;;;;;;;;;5151479;27;20051;-81
2021/09/21 02:52:58;;;;;;;14.27;10.07;;;;;;;;;;5152291;27;20049;-82
2021/09/21 02:55:24;;;;;;;15.18;10.60;;;;;;;;;;5156989;27;20070;-82
2021/09/21 02:57:51;;;;;;;15.50;10.57;;;;;;;;;;5137359;27;20104;-82
2021/09/21 03:00:25;;;;;;;16.33;9.75;;;;;;;;;;5155234;27;20053;-82
2021/09/21 03:02:52;;;;;;;18.08;10.27;;;;;;;;;;5129126;27;20062;-82
2021/09/21 03:05:25;;;;;;;14.50;10.20;;;;;;;;;;5140870;27;20335;-82
2021/09/21 03:07:59;;;;;;;14.20;10.85;;;;;;;;;;5140139;27;20346;-82
2021/09/21 03:13:23;;;;;;;17.35;9.85;;;;;;;;;;5140977;27;20074;-82
2021/09/21 03:18:36;;;;;;;18.60;10.80;;;;;;;;;;5140633;27;20051;-82
2021/09/21 03:21:08;;;;;;;13.68;9.40;;;;;;;;;;5144036;27;20047;-82
2021/09/21 03:23:35;;;;;;;15.00;10.07;;;;;;;;;;5128469;27;20043;-82
2021/09/21 03:26:02;;;;;;;14.25;8.52;;;;;;;;;;5146492;27;20422;-82
2021/09/21 03:28:28;;;;;;;15.10;8.75;;;;;;;;;;5117936;27;20062;-83
2021/09/21 03:30:55;;;;;;;13.15;8.40;;;;;;;;;;5134737;27;20047;-83
2021/09/21 03:33:22;;;;;;;11.23;7.50;;;;;;;;;;5116634;27;20101;-83
2021/09/21 03:35:48;;;;;;;15.27;8.25;;;;;;;;;;5135722;27;20150;-81
2021/09/21 03:38:15;;;;;;;12.93;7.60;;;;;;;;;;5134488;27;20134;-83
2021/09/21 03:40:45;;;;;;;10.98;7.55;;;;;;;;;;5115465;28;20154;-82
2021/09/21 03:43:12;;;;;;;11.93;7.35;;;;;;;;;;5099063;28;20059;-81
2021/09/21 03:45:39;;;;;;;10.35;7.43;;;;;;;;;;5102465;28;20047;-82
2021/09/21 03:48:07;;;;;;;10.25;7.30;;;;;;;;;;5120463;28;20057;-82
2021/09/21 03:50:34;;;;;;;11.50;7.45;;;;;;;;;;5099917;28;20052;-82
2021/09/21 03:53:02;;;;;;;11.43;8.05;;;;;;;;;;5100277;28;20058;-82
2021/09/21 03:55:28;;;;;;;11.68;7.38;;;;;;;;;;5116834;28;20059;-82
2021/09/21 03:57:55;;;;;;;15.45;8.50;;;;;;;;;;5097888;28;20054;-82
2021/09/21 04:00:22;;;;;;;13.32;8.60;;;;;;;;;;5099889;28;20055;-81
2021/09/21 04:02:48;;;;;;;13.13;8.57;;;;;;;;;;5121809;28;20044;-82
2021/09/21 04:05:16;;;;;;;15.13;8.93;;;;;;;;;;5107626;28;20051;-81
2021/09/21 04:07:42;;;;;;;13.00;7.70;;;;;;;;;;5121790;28;20058;-83
2021/09/21 04:10:09;;;;;;;15.95;8.07;;;;;;;;;;5110524;28;20208;-82
2021/09/21 04:12:36;;;;;;;14.45;8.32;;;;;;;;;;5137615;28;20051;-82
2021/09/21 04:15:04;;;;;;;11.05;7.70;;;;;;;;;;5135985;28;20065;-82
2021/09/21 04:17:31;;;;;;;20.17;8.40;;;;;;;;;;5119877;28;20051;-82
2021/09/21 04:20:02;;;;;;;13.70;8.23;;;;;;;;;;5120874;28;20139;-82
2021/09/21 04:22:29;;;;;;;13.32;7.20;;;;;;;;;;5119763;28;20051;-82
2021/09/21 04:24:55;;;;;;;12.35;8.07;;;;;;;;;;5120463;28;20171;-82
2021/09/21 04:27:23;;;;;;;11.98;7.88;;;;;;;;;;5118721;28;20059;-83
2021/09/21 04:29:58;;;;;;;10.95;7.25;;;;;;;;;;5103223;28;20063;-83
2021/09/21 04:32:25;;;;;;;12.05;7.25;;;;;;;;;;5114907;28;20051;-82
2021/09/21 04:34:54;;;;;;;11.60;7.88;;;;;;;;;;5115507;28;20097;-82
2021/09/21 04:37:21;;;;;;;11.20;7.60;;;;;;;;;;5115713;28;20146;-82
2021/09/21 04:39:53;;;;;;;14.15;8.40;;;;;;;;;;5134245;28;20304;-82
2021/09/21 04:42:22;;;;;;;12.13;8.10;;;;;;;;;;5114734;27;20080;-82
2021/09/21 04:44:55;;;;;;;12.18;8.05;;;;;;;;;;5118927;27;20055;-82
2021/09/21 04:47:22;;;;;;;11.95;8.27;;;;;;;;;;5115077;27;20319;-81
2021/09/21 04:49:48;;;;;;;14.85;8.25;;;;;;;;;;5110178;27;20043;-83
2021/09/21 04:52:20;;;;;;;14.07;8.32;;;;;;;;;;5117481;27;20269;-83
2021/09/21 04:54:47;;;;;;;15.70;8.20;;;;;;;;;;5135520;27;20066;-83
2021/09/21 04:57:14;;;;;;;12.27;7.95;;;;;;;;;;5118225;27;20076;-82
2021/09/21 04:59:41;;;;;;;10.57;7.53;;;;;;;;;;5134268;27;20112;-82
2021/09/21 05:02:07;;;;;;;11.68;7.63;;;;;;;;;;5115900;27;20190;-83
2021/09/21 05:04:34;;;;;;;13.45;8.32;;;;;;;;;;5133976;27;20066;-82
2021/09/21 05:07:01;;;;;;;14.13;9.90;;;;;;;;;;5115996;27;20239;-82
2021/09/21 05:09:28;;;;;;;12.32;8.52;;;;;;;;;;5132844;27;20062;-82
2021/09/21 05:11:55;;;;;;;13.68;8.77;;;;;;;;;;5114007;27;20173;-82
2021/09/21 05:14:25;;;;;;;15.70;9.63;;;;;;;;;;5130977;27;20310;-82
2021/09/21 05:16:51;;;;;;;11.20;8.43;;;;;;;;;;5133369;27;20089;-82
2021/09/21 05:19:18;;;;;;;13.05;8.73;;;;;;;;;;5121979;27;20066;-81
2021/09/21 05:21:45;;;;;;;16.08;8.38;;;;;;;;;;5140315;27;20066;-81
2021/09/21 05:24:12;;;;;;;11.90;7.85;;;;;;;;;;5117471;27;20093;-82
2021/09/21 05:26:39;;;;;;;10.63;7.78;;;;;;;;;;5115706;27;20609;-81
2021/09/21 05:29:05;;;;;;;10.35;7.88;;;;;;;;;;5115157;27;20114;-82
2021/09/21 05:31:32;;;;;;;14.48;9.05;;;;;;;;;;5115644;27;20354;-82
2021/09/21 05:34:06;;;;;;;14.23;8.35;;;;;;;;;;5111053;27;20100;-82
2021/09/21 05:36:36;;;;;;;13.32;8.57;;;;;;;;;;5132223;27;20390;-82
2021/09/21 05:39:03;;;;;;;10.73;7.80;;;;;;;;;;5112832;27;20180;-82
2021/09/21 05:41:30;;;;;;;11.43;8.18;;;;;;;;;;5114182;27;20047;-82
2021/09/21 05:43:56;;;;;;;14.07;7.72;;;;;;;;;;5095741;28;20090;-82
2021/09/21 05:46:23;;;;;;;12.55;7.85;;;;;;;;;;5103194;27;20186;-82
2021/09/21 05:48:59;;;;;;;13.75;7.72;;;;;;;;;;5138413;27;20236;-82
2021/09/21 05:51:30;;;;;;;11.27;8.45;;;;;;;;;;5114703;27;20343;-82
2021/09/21 05:53:57;;;;;;;15.13;8.27;;;;;;;;;;5129700;27;20476;-82
2021/09/21 05:56:24;;;;;;;11.23;7.45;;;;;;;;;;5113214;27;20398;-81
2021/09/21 05:58:51;;;;;;;15.60;8.43;;;;;;;;;;5111937;28;20100;-82
2021/09/21 06:01:20;;;;;;;14.23;7.80;;;;;;;;;;5093227;28;20331;-82
2021/09/21 06:03:48;;;;;;;12.07;7.43;;;;;;;;;;5105235;28;20089;-82
2021/09/21 06:06:15;;;;;;;9.43;6.60;;;;;;;;;;5110519;27;20071;-84
2021/09/21 06:08:41;;;;;;;11.70;7.32;;;;;;;;;;5120915;27;20048;-83
2021/09/21 06:11:08;;;;;;;12.65;7.43;;;;;;;;;;5115765;27;20054;-83
2021/09/21 06:13:43;;;;;;;11.50;7.05;;;;;;;;;;5134071;27;20054;-82
2021/09/21 06:16:10;;;;;;;12.25;7.32;;;;;;;;;;5142978;27;20055;-82
2021/09/21 06:18:37;;;;;;;11.27;6.85;;;;;;;;;;5145167;27;20051;-83
2021/09/21 06:21:03;;;;;;;13.43;7.28;;;;;;;;;;5110532;28;20048;-81
2021/09/21 06:23:32;;;;;;;11.15;6.47;;;;;;;;;;5120228;27;20310;-83
2021/09/21 06:25:59;;;;;;;13.70;6.72;;;;;;;;;;5112068;27;20383;-82
2021/09/21 06:28:26;;;;;;;10.05;7.13;;;;;;;;;;5112424;27;20082;-82
2021/09/21 06:30:52;;;;;;;11.00;6.22;;;;;;;;;;5111897;28;20162;-82
2021/09/21 06:33:19;;;;;;;13.23;6.20;;;;;;;;;;5121985;28;20245;-82
2021/09/21 06:35:46;;;;;;;11.60;6.53;;;;;;;;;;5121334;28;20075;-82
2021/09/21 06:38:13;;;;;;;12.93;6.50;;;;;;;;;;5099574;27;20052;-83
2021/09/21 06:40:40;;;;;;;12.70;6.20;;;;;;;;;;5114907;27;20230;-81
2021/09/21 06:43:07;;;;;;;14.95;6.75;;;;;;;;;;5113225;27;20047;-83
2021/09/21 06:45:33;;;;;;;9.50;6.20;;;;;;;;;;5109951;27;20068;-83
2021/09/21 06:48:00;;;;;;;11.75;6.68;;;;;;;;;;5113816;27;20394;-83
2021/09/21 06:50:27;;;;;;;9.18;6.40;;;;;;;;;;5130282;27;20088;-83
2021/09/21 06:52:54;;;;;;;7.65;6.18;;;;;;;;;;5107967;27;20051;-81
2021/09/21 06:55:23;;;;;;;12.55;7.18;;;;;;;;;;5105938;27;20059;-83
2021/09/21 06:57:56;;;;;;;13.25;7.20;;;;;;;;;;5125862;27;20059;-82
2021/09/21 07:00:23;;;;;;;8.70;5.82;;;;;;;;;;5127706;27;20048;-82
2021/09/21 07:02:53;;;;;;;10.52;6.68;;;;;;;;;;5137713;27;20051;-82
2021/09/21 07:05:21;;;;;;;15.52;6.90;;;;;;;;;;5141850;27;20055;-82
2021/09/21 07:07:49;;;;;;;16.42;8.25;;;;;;;;;;5137967;27;20077;-81
2021/09/21 07:10:17;;;;;;;9.40;7.03;;;;;;;;;;5140621;27;20148;-82
2021/09/21 07:12:47;;;;;;;12.68;6.78;;;;;;;;;;5120605;27;20240;-82
2021/09/21 07:15:14;;;;;;;11.02;6.18;;;;;;;;;;5111987;28;20083;-83
2021/09/21 07:17:43;;;;;;;10.10;6.72;;;;;;;;;;5109976;28;20048;-83
2021/09/21 07:20:11;;;;;;;8.50;6.13;;;;;;;;;;5109712;28;20043;-82
2021/09/21 07:22:38;;;;;;;9.60;6.32;;;;;;;;;;5108757;27;20055;-82
2021/09/21 07:25:05;;;;;;;15.07;6.47;;;;;;;;;;5125306;27;20047;-83
2021/09/21 07:27:33;;;;;;;19.30;9.23;;;;;;;;;;5110805;27;20051;-83
2021/09/21 07:30:00;;;;;;;11.88;7.32;;;;;;;;;;5109895;27;20047;-82
2021/09/21 07:32:27;;;;;;;13.80;8.30;;;;;;;;;;5110879;27;20058;-82
2021/09/21 07:34:54;;;;;;;13.57;7.22;;;;;;;;;;5111379;27;20142;-83
2021/09/21 07:37:20;;;;;;;11.45;7.93;;;;;;;;;;5094210;28;20132;-83
2021/09/21 07:39:50;;;;;;;12.63;7.10;;;;;;;;;;5098056;27;20057;-83
2021/09/21 07:42:17;;;;;;;10.70;6.68;;;;;;;;;;5132173;27;20047;-83
2021/09/21 07:44:45;;;;;;;9.20;5.63;;;;;;;;;;5096786;28;20116;-82
2021/09/21 07:47:12;;;;;;;9.80;6.03;;;;;;;;;;5111756;28;20116;-83
2021/09/21 07:49:41;;;;;;;13.25;6.88;;;;;;;;;;5086539;28;20066;-82
2021/09/21 07:52:08;;;;;;;15.40;6.50;;;;;;;;;;5087651;28;20236;-82
2021/09/21 07:54:35;;;;;;;10.80;6.57;;;;;;;;;;5087368;28;20435;-83
2021/09/21 07:57:02;;;;;;;13.02;6.47;;;;;;;;;;5088903;28;20391;-83
2021/09/21 07:59:29;;;;;;;18.40;8.98;;;;;;;;;;5098203;27;20068;-83
2021/09/21 08:02:00;;;;;;;11.02;6.32;;;;;;;;;;5128393;27;20059;-83
2021/09/21 08:04:28;;;;;;;10.88;6.55;;;;;;;;;;5114670;28;20111;-81
2021/09/21 08:06:55;;;;;;;13.93;7.13;;;;;;;;;;5116302;27;20055;-83
2021/09/21 08:09:26;;;;;;;10.02;5.95;;;;;;;;;;5116200;28;20113;-82
2021/09/21 08:11:52;;;;;;;9.95;6.10;;;;;;;;;;5114767;28;20227;-83
2021/09/21 08:14:19;;;;;;;8.98;6.22;;;;;;;;;;5133607;28;20043;-83
2021/09/21 08:16:46;;;;;;;11.38;5.32;;;;;;;;;;5133431;27;20061;-83
2021/09/21 08:19:14;;;;;;;11.77;5.53;;;;;;;;;;5116840;27;20085;-84
2021/09/21 08:21:41;;;;;;;13.75;6.15;;;;;;;;;;5117697;27;20149;-82
2021/09/21 08:24:09;;;;;;;14.23;6.35;;;;;;;;;;5136010;27;20473;-83
2021/09/21 08:26:36;;;;;;;9.57;5.78;;;;;;;;;;5139349;27;20065;-84
2021/09/21 08:29:03;;;;;;;11.32;4.75;;;;;;;;;;5119262;27;20388;-83
2021/09/21 08:31:33;;;;;;;9.02;5.03;;;;;;;;;;5127703;27;20048;-81
2021/09/21 08:34:01;;;;;;;8.85;5.60;;;;;;;;;;5099373;28;20043;-82
2021/09/21 08:36:28;;;;;;;14.68;5.60;;;;;;;;;;5100704;28;20086;-82
2021/09/21 08:38:56;;;;;;;11.38;5.65;;;;;;;;;;5097408;27;20144;-82
2021/09/21 08:41:25;;;;;;;10.70;5.72;;;;;;;;;;5131554;27;20524;-83
2021/09/21 08:43:52;;;;;;;9.98;5.18;;;;;;;;;;5114184;27;20097;-83
2021/09/21 08:46:19;;;;;;;10.70;5.63;;;;;;;;;;5113613;27;20249;-83
2021/09/21 08:48:46;;;;;;;7.05;5.28;;;;;;;;;;5114307;27;20046;-83
2021/09/21 08:51:13;;;;;;;9.05;5.15;;;;;;;;;;5122085;27;20054;-84
2021/09/21 08:53:40;;;;;;;8.43;5.53;;;;;;;;;;5149222;27;20047;-82
2021/09/21 08:56:07;;;;;;;14.52;6.35;;;;;;;;;;5128555;27;20054;-83
2021/09/21 08:58:34;;;;;;;10.93;5.03;;;;;;;;;;5129702;27;20074;-82
2021/09/21 09:01:14;;;;;;;7.47;4.50;;;;;;;;;;5139742;27;20078;-82
2021/09/21 09:04:00;;;;;;;8.45;5.00;;;;;;;;;;5112528;27;20276;-83
2021/09/21 09:06:28;;;;;;;9.77;5.40;;;;;;;;;;5107269;27;20047;-82
2021/09/21 09:08:54;;;;;;;9.95;5.05;;;;;;;;;;5129971;27;20051;-85
2021/09/21 09:11:22;;;;;;;13.35;5.30;;;;;;;;;;5112431;27;20043;-85
2021/09/21 09:13:51;;;;;;;7.47;4.40;;;;;;;;;;5131536;27;20051;-85
2021/09/21 09:16:18;;;;;;;9.90;3.83;;;;;;;;;;5112580;27;20136;-85
2021/09/21 09:18:50;;;;;;;8.15;4.00;;;;;;;;;;5130300;27;20052;-84
2021/09/21 09:21:20;;;;;;;7.55;4.25;;;;;;;;;;5096693;28;20119;-84
2021/09/21 09:23:52;;;;;;;5.70;3.78;;;;;;;;;;5096342;28;20204;-84
2021/09/21 09:26:19;;;;;;;5.80;4.03;;;;;;;;;;5125588;28;20040;-83
2021/09/21 09:28:47;;;;;;;8.23;4.55;;;;;;;;;;5110700;28;20140;-85
2021/09/21 09:31:33;;;;;;;8.05;4.70;;;;;;;;;;5101387;28;20078;-85
2021/09/21 09:34:25;;;;;;;8.07;4.40;;;;;;;;;;5099003;28;20446;-84
2021/09/21 09:36:53;;;;;;;7.03;4.85;;;;;;;;;;5117911;28;20036;-84
2021/09/21 09:39:21;;;;;;;6.07;3.92;;;;;;;;;;5109695;28;20056;-84
2021/09/21 09:41:49;;;;;;;9.00;5.35;;;;;;;;;;5106280;27;20347;-85
2021/09/21 09:44:18;;;;;;;10.15;4.97;;;;;;;;;;5143988;27;20216;-85
2021/09/21 09:46:54;;;;;;;6.38;4.30;;;;;;;;;;5146560;27;20047;-85
2021/09/21 09:49:23;;;;;;;8.80;4.18;;;;;;;;;;5117770;27;20112;-85
2021/09/21 09:51:51;;;;;;;9.75;4.07;;;;;;;;;;5116875;27;20179;-85
2021/09/21 09:54:18;;;;;;;5.95;4.03;;;;;;;;;;5102276;27;20058;-84
2021/09/21 09:56:45;;;;;;;6.57;4.00;;;;;;;;;;5118476;27;20152;-84
2021/09/21 09:59:12;;;;;;;5.55;4.07;;;;;;;;;;5100220;28;20057;-84
2021/09/21 10:01:39;;;;;;;6.95;3.72;;;;;;;;;;5098099;28;20071;-84
2021/09/21 10:04:06;;;;;;;6.93;4.10;;;;;;;;;;5101663;27;20061;-85
2021/09/21 10:06:34;;;;;;;6.22;4.90;;;;;;;;;;5099415;28;20150;-84
2021/09/21 10:09:00;;;;;;;11.57;4.72;;;;;;;;;;5105274;28;20511;-85
2021/09/21 10:11:29;;;;;;;7.03;4.20;;;;;;;;;;5104717;28;20236;-85
2021/09/21 10:14:00;;;;;;;8.15;4.53;;;;;;;;;;5101302;28;20250;-84
2021/09/21 10:16:28;;;;;;;7.88;4.60;;;;;;;;;;5095561;28;20068;-84
2021/09/21 10:18:56;;;;;;;8.05;4.38;;;;;;;;;;5095726;28;20087;-84
2021/09/21 10:21:33;;;;;;;8.65;4.18;;;;;;;;;;5094091;28;20201;-85
2021/09/21 10:24:03;;;;;;;8.55;4.30;;;;;;;;;;5106029;28;20487;-84
2021/09/21 10:26:40;;;;;;;10.25;4.32;;;;;;;;;;5115802;28;20043;-84
2021/09/21 10:29:08;;;;;;;7.55;3.90;;;;;;;;;;5113612;28;20127;-85
2021/09/21 10:31:36;;;;;;;6.43;4.28;;;;;;;;;;5109832;28;20224;-85
2021/09/21 10:34:16;;;;;;;9.82;4.30;;;;;;;;;;5111598;28;20063;-84
2021/09/21 10:36:48;;;;;;;6.72;4.35;;;;;;;;;;5111341;28;20366;-85
2021/09/21 10:39:15;;;;;;;6.15;3.65;;;;;;;;;;5112053;28;20211;-84
2021/09/21 10:41:50;;;;;;;8.52;3.92;;;;;;;;;;5112688;28;20075;-85
2021/09/21 10:44:18;;;;;;;6.57;4.38;;;;;;;;;;5111089;28;20056;-85
2021/09/21 10:46:55;;;;;;;5.40;3.40;;;;;;;;;;5099529;28;20351;-85
2021/09/21 10:49:25;;;;;;;9.52;3.60;;;;;;;;;;5131860;27;20066;-84
2021/09/21 10:51:54;;;;;;;5.88;3.58;;;;;;;;;;5109507;28;20059;-84
2021/09/21 10:54:32;;;;;;;7.88;3.90;;;;;;;;;;5107476;28;20097;-83
2021/09/21 10:57:03;;;;;;;6.28;3.80;;;;;;;;;;5102450;28;20245;-84
2021/09/21 10:59:30;;;;;;;6.22;4.20;;;;;;;;;;5105569;28;20094;-85
2021/09/21 11:02:00;;;;;;;8.05;3.67;;;;;;;;;;5110307;28;20058;-83
2021/09/21 11:04:36;;;;;;;5.30;3.70;;;;;;;;;;5111680;28;20108;-85
2021/09/21 11:07:04;;;;;;;6.57;3.78;;;;;;;;;;5102781;28;20063;-84
2021/09/21 11:09:31;;;;;;;4.88;3.15;;;;;;;;;;5104723;28;20048;-84
2021/09/21 11:12:11;;;;;;;9.45;4.13;;;;;;;;;;5096719;28;20100;-86
2021/09/21 11:14:43;;;;;;;6.78;3.95;;;;;;;;;;5101857;27;20047;-84
2021/09/21 11:17:11;;;;;;;8.25;4.30;;;;;;;;;;5131550;27;20055;-85
2021/09/21 11:19:38;;;;;;;10.77;4.93;;;;;;;;;;5114336;27;20078;-84
2021/09/21 11:22:15;;;;;;;9.63;4.60;;;;;;;;;;5121865;27;20186;-86
2021/09/21 11:24:46;;;;;;;6.93;4.63;;;;;;;;;;5118797;27;20235;-85
2021/09/21 11:27:14;;;;;;;9.95;4.45;;;;;;;;;;5138081;27;20061;-84
2021/09/21 11:29:43;;;;;;;8.98;4.28;;;;;;;;;;5112391;28;20078;-85
2021/09/21 11:32:15;;;;;;;11.07;4.05;;;;;;;;;;5118219;27;20062;-83
2021/09/21 11:35:00;;;;;;;10.07;5.28;;;;;;;;;;5117667;27;20379;-84
2021/09/21 11:37:47;;;;;;;10.15;4.20;;;;;;;;;;5116050;27;20099;-85
2021/09/21 11:40:29;;;;;;;8.43;4.60;;;;;;;;;;5097442;28;20081;-85
2021/09/21 11:42:56;;;;;;;7.32;4.28;;;;;;;;;;5114097;27;20075;-85
2021/09/21 11:45:23;;;;;;;8.60;4.38;;;;;;;;;;5103540;27;20114;-85
2021/09/21 11:47:50;;;;;;;8.18;3.78;;;;;;;;;;5133079;27;20339;-85
2021/09/21 11:50:19;;;;;;;10.10;4.40;;;;;;;;;;5112296;28;20128;-85
2021/09/21 11:52:50;;;;;;;5.57;3.83;;;;;;;;;;5095054;28;20063;-83
2021/09/21 11:55:18;;;;;;;6.88;4.25;;;;;;;;;;5107041;28;20093;-85
2021/09/21 11:57:46;;;;;;;7.13;4.13;;;;;;;;;;5087550;28;20075;-84
2021/09/21 12:00:26;;;;;;;9.52;4.22;;;;;;;;;;5105951;28;20055;-84
2021/09/21 12:02:54;;;;;;;8.00;4.18;;;;;;;;;;5108203;27;20074;-86
2021/09/21 12:05:21;;;;;;;8.50;4.28;;;;;;;;;;5108611;28;20505;-84
2021/09/21 12:07:49;;;;;;;6.07;3.55;;;;;;;;;;5128493;27;20275;-83
2021/09/21 12:10:17;;;;;;;8.80;4.75;;;;;;;;;;5131203;27;20055;-84
2021/09/21 12:12:45;;;;;;;7.07;4.00;;;;;;;;;;5132159;27;20138;-84
2021/09/21 12:15:12;;;;;;;7.20;5.18;;;;;;;;;;5132271;28;20081;-84
2021/09/21 12:17:43;;;;;;;6.43;4.38;;;;;;;;;;5126257;28;20065;-83
2021/09/21 12:20:10;;;;;;;8.75;4.88;;;;;;;;;;5132967;28;20325;-84
2021/09/21 12:22:38;;;;;;;9.40;4.80;;;;;;;;;;5113983;28;20082;-84
2021/09/21 12:25:06;;;;;;;9.57;4.07;;;;;;;;;;5112886;28;20057;-85
2021/09/21 12:27:34;;;;;;;7.90;4.18;;;;;;;;;;5129857;28;20222;-85
2021/09/21 12:30:00;;;;;;;9.10;4.32;;;;;;;;;;5109036;28;20096;-85
2021/09/21 12:32:28;;;;;;;8.00;4.80;;;;;;;;;;5128047;28;20055;-85
2021/09/21 12:35:13;;;;;;;5.47;3.88;;;;;;;;;;5114021;28;20047;-84
2021/09/21 12:37:41;;;;;;;5.55;3.75;;;;;;;;;;5116605;28;20054;-85
2021/09/21 12:40:08;;;;;;;6.22;3.33;;;;;;;;;;5124605;28;20047;-85
2021/09/21 12:42:36;;;;;;;7.50;3.97;;;;;;;;;;5108946;28;20195;-85
2021/09/21 12:45:04;;;;;;;8.55;4.00;;;;;;;;;;5107313;28;20153;-86
2021/09/21 12:47:31;;;;;;;6.28;4.05;;;;;;;;;;5126463;28;20070;-83
2021/09/21 12:49:58;;;;;;;6.13;3.72;;;;;;;;;;5126371;28;20067;-84
2021/09/21 12:52:31;;;;;;;8.50;4.10;;;;;;;;;;5135673;28;20061;-85
2021/09/21 12:54:58;;;;;;;8.63;4.15;;;;;;;;;;5141434;28;20242;-84
2021/09/21 12:57:25;;;;;;;5.43;4.03;;;;;;;;;;5117194;28;20049;-83
2021/09/21 13:00:01;;;;;;;9.98;4.43;;;;;;;;;;5124698;28;20082;-84
2021/09/21 13:02:28;;;;;;;8.65;4.47;;;;;;;;;;5114855;28;20088;-84
2021/09/21 13:04:55;;;;;;;9.38;3.88;;;;;;;;;;5096454;28;20063;-85
2021/09/21 13:07:22;;;;;;;9.18;4.00;;;;;;;;;;5095912;28;20088;-84
2021/09/21 13:09:49;;;;;;;6.68;4.32;;;;;;;;;;5094068;28;20408;-83
2021/09/21 13:12:16;;;;;;;10.48;4.18;;;;;;;;;;5094971;28;20058;-84
2021/09/21 13:14:44;;;;;;;12.02;4.18;;;;;;;;;;5095657;28;20205;-84
2021/09/21 13:17:11;;;;;;;6.95;3.92;;;;;;;;;;5098615;27;20059;-84
2021/09/21 13:19:48;;;;;;;8.88;4.18;;;;;;;;;;5097657;28;20162;-86
2021/09/21 13:22:29;;;;;;;6.35;4.00;;;;;;;;;;5096892;27;20058;-84
2021/09/21 13:25:00;;;;;;;7.50;3.90;;;;;;;;;;5131870;27;20290;-85
2021/09/21 13:27:27;;;;;;;7.68;4.00;;;;;;;;;;5134396;27;20086;-85
2021/09/21 13:29:54;;;;;;;5.75;4.05;;;;;;;;;;5121822;27;20317;-85
2021/09/21 13:32:23;;;;;;;9.75;4.97;;;;;;;;;;5110188;27;20075;-85
2021/09/21 13:34:49;;;;;;;6.35;4.28;;;;;;;;;;5133108;27;20047;-85
2021/09/21 13:37:18;;;;;;;9.93;3.65;;;;;;;;;;5131495;27;20429;-84
2021/09/21 13:39:47;;;;;;;5.95;3.92;;;;;;;;;;5114473;27;20496;-83
2021/09/21 13:42:13;;;;;;;8.55;4.20;;;;;;;;;;5131764;27;20043;-84
2021/09/21 13:44:40;;;;;;;5.90;3.75;;;;;;;;;;5132032;27;20542;-85
2021/09/21 13:47:07;;;;;;;6.75;3.80;;;;;;;;;;5128673;27;20118;-84
2021/09/21 13:49:33;;;;;;;6.28;3.95;;;;;;;;;;5123899;28;20060;-84
2021/09/21 13:52:02;;;;;;;8.73;3.97;;;;;;;;;;5111612;27;20093;-84
2021/09/21 13:54:29;;;;;;;6.28;4.07;;;;;;;;;;5137648;27;20079;-84
2021/09/21 13:56:56;;;;;;;7.85;4.43;;;;;;;;;;5128659;27;20111;-85
2021/09/21 13:59:23;;;;;;;7.10;4.10;;;;;;;;;;5131268;27;20058;-85
2021/09/21 14:01:50;;;;;;;6.57;4.07;;;;;;;;;;5112801;27;20074;-86
2021/09/21 14:04:18;;;;;;;8.45;4.38;;;;;;;;;;5114401;27;20083;-86
2021/09/21 14:06:47;;;;;;;7.20;4.57;;;;;;;;;;5113583;27;20079;-84
2021/09/21 14:09:15;;;;;;;6.90;4.45;;;;;;;;;;5112049;27;20089;-84
2021/09/21 14:11:45;;;;;;;9.43;5.10;;;;;;;;;;5130262;27;20192;-84
2021/09/21 14:14:11;;;;;;;6.65;4.97;;;;;;;;;;5113961;27;20051;-85
2021/09/21 14:16:38;;;;;;;8.25;5.20;;;;;;;;;;5131535;27;20058;-84
2021/09/21 14:19:05;;;;;;;9.07;5.30;;;;;;;;;;5130563;27;20063;-83
2021/09/21 14:21:32;;;;;;;9.77;6.50;;;;;;;;;;5112246;27;20412;-84
2021/09/21 14:23:59;;;;;;;9.38;6.82;;;;;;;;;;5113351;27;20055;-84
2021/09/21 14:26:26;;;;;;;15.40;7.30;;;;;;;;;;5133019;27;20077;-83
2021/09/21 14:28:52;;;;;;;12.25;7.30;;;;;;;;;;5129869;27;20219;-84
2021/09/21 14:31:19;;;;;;;8.52;7.07;;;;;;;;;;5111451;27;20123;-85
2021/09/21 14:33:46;;;;;;;12.63;7.68;;;;;;;;;;5111779;27;20051;-85
2021/09/21 14:36:13;;;;;;;11.32;8.07;;;;;;;;;;5112711;27;20485;-85
2021/09/21 14:38:40;;;;;;;14.85;7.93;;;;;;;;;;5133329;27;20243;-85
2021/09/21 14:41:08;;;;;;;15.88;8.88;;;;;;;;;;5135331;27;20047;-85
2021/09/21 14:43:38;;;;;;;12.85;7.93;;;;;;;;;;5134236;27;20062;-86
2021/09/21 14:46:09;;;;;;;13.10;9.00;;;;;;;;;;5131270;27;20170;-85
2021/09/21 14:48:36;;;;;;;15.93;10.07;;;;;;;;;;5116317;27;20056;-85
2021/09/21 14:51:07;;;;;;;11.80;9.25;;;;;;;;;;5128770;27;20142;-86